createdAt,value
2018-04-14T00:00:36.557Z,55.90
2018-04-14T00:01:36.464Z,55.90
2018-04-14T00:02:36.738Z,55.90
2018-04-14T00:03:36.527Z,55.90
2018-04-14T00:04:36.550Z,55.90
2018-04-14T00:05:36.489Z,55.90
2018-04-14T00:06:36.511Z,55.90
2018-04-14T00:07:36.538Z,55.90
2018-04-14T00:08:36.563Z,55.90
2018-04-14T00:09:36.495Z,55.90
2018-04-14T00:10:36.546Z,56.80
2018-04-14T00:11:36.543Z,56.80
2018-04-14T00:12:36.543Z,56.80
2018-04-14T00:13:36.637Z,56.80
2018-04-14T00:14:36.539Z,56.80
2018-04-14T00:15:36.468Z,56.80
2018-04-14T00:16:36.552Z,56.80
2018-04-14T00:17:36.477Z,56.80
2018-04-14T00:18:36.471Z,56.80
2018-04-14T00:19:36.547Z,56.80
2018-04-14T00:20:36.484Z,57.70
2018-04-14T00:21:36.547Z,57.70
2018-04-14T00:22:36.472Z,57.70
2018-04-14T00:23:36.474Z,57.70
2018-04-14T00:24:36.488Z,57.70
2018-04-14T00:25:36.490Z,57.70
2018-04-14T00:26:36.477Z,57.70
2018-04-14T00:27:36.548Z,57.70
2018-04-14T00:28:36.504Z,57.70
2018-04-14T00:29:36.548Z,57.70
2018-04-14T00:30:36.568Z,62.10
2018-04-14T00:31:36.482Z,62.10
2018-04-14T00:32:36.464Z,62.10
2018-04-14T00:33:36.571Z,62.10
2018-04-14T00:34:36.555Z,62.10
2018-04-14T00:35:36.526Z,62.10
2018-04-14T00:36:36.606Z,62.10
2018-04-14T00:37:36.451Z,62.10
2018-04-14T00:38:36.548Z,62.10
2018-04-14T00:39:36.600Z,62.10
2018-04-14T00:40:36.485Z,67.90
2018-04-14T00:41:36.480Z,67.90
2018-04-14T00:42:36.497Z,67.90
2018-04-14T00:43:36.483Z,67.90
2018-04-14T00:44:36.483Z,67.90
2018-04-14T00:45:36.560Z,67.90
2018-04-14T00:46:36.487Z,67.90
2018-04-14T00:47:36.484Z,67.90
2018-04-14T00:48:36.484Z,67.90
2018-04-14T00:49:36.490Z,67.90
2018-04-14T00:50:36.583Z,66.70
2018-04-14T00:51:36.476Z,66.70
2018-04-14T00:52:36.560Z,66.70
2018-04-14T00:53:36.519Z,66.70
2018-04-14T00:54:36.568Z,66.70
2018-04-14T00:55:36.538Z,66.70
2018-04-14T00:56:36.523Z,66.70
2018-04-14T00:57:36.593Z,66.70
2018-04-14T00:58:36.520Z,66.70
2018-04-14T00:59:36.538Z,66.70
2018-04-14T01:00:36.539Z,66.50
2018-04-14T01:01:36.477Z,66.50
2018-04-14T01:02:36.535Z,66.50
2018-04-14T01:03:36.606Z,66.50
2018-04-14T01:04:36.504Z,66.50
2018-04-14T01:05:36.560Z,66.50
2018-04-14T01:06:36.496Z,66.50
2018-04-14T01:07:36.601Z,66.50
2018-04-14T01:08:36.495Z,66.50
2018-04-14T01:09:36.577Z,66.50
2018-04-14T01:10:36.517Z,58.50
2018-04-14T01:11:36.459Z,58.50
2018-04-14T01:12:36.584Z,58.50
2018-04-14T01:13:36.579Z,58.50
2018-04-14T01:14:36.532Z,58.50
2018-04-14T01:15:36.579Z,58.50
2018-04-14T01:16:36.506Z,58.50
2018-04-14T01:17:36.506Z,58.50
2018-04-14T01:18:36.582Z,58.50
2018-04-14T01:19:36.579Z,58.50
2018-04-14T01:20:36.499Z,61.30
2018-04-14T01:21:36.573Z,61.30
2018-04-14T01:22:36.508Z,61.30
2018-04-14T01:23:36.575Z,61.30
2018-04-14T01:24:36.603Z,61.30
2018-04-14T01:25:36.504Z,61.30
2018-04-14T01:26:36.574Z,61.30
2018-04-14T01:27:36.500Z,61.30
2018-04-14T01:28:36.578Z,61.30
2018-04-14T01:29:36.509Z,61.30
2018-04-14T01:30:36.592Z,59.40
2018-04-14T01:31:36.589Z,59.40
2018-04-14T01:32:36.531Z,59.40
2018-04-14T01:33:36.515Z,59.40
2018-04-14T01:34:36.516Z,59.40
2018-04-14T01:35:36.591Z,59.40
2018-04-14T01:36:36.595Z,59.40
2018-04-14T01:37:36.592Z,59.40
2018-04-14T01:38:36.593Z,59.40
2018-04-14T01:39:36.593Z,59.40
2018-04-14T01:40:36.548Z,64.40
2018-04-14T01:41:36.554Z,64.40
2018-04-14T01:42:36.597Z,64.40
2018-04-14T01:43:36.557Z,64.40
2018-04-14T01:44:36.537Z,64.40
2018-04-14T01:46:36.600Z,64.40
2018-04-14T01:47:36.539Z,64.40
2018-04-14T01:48:36.524Z,64.40
2018-04-14T01:49:36.527Z,64.40
2018-04-14T01:50:36.545Z,59.60
2018-04-14T01:51:36.567Z,59.60
2018-04-14T01:52:36.621Z,59.60
2018-04-14T01:53:36.623Z,59.60
2018-04-14T01:54:36.532Z,59.60
2018-04-14T01:55:36.603Z,59.60
2018-04-14T01:56:36.500Z,59.60
2018-04-14T01:57:36.604Z,59.60
2018-04-14T01:58:36.533Z,59.60
2018-04-14T01:59:36.605Z,59.60
2018-04-14T02:00:36.530Z,56.00
2018-04-14T02:01:36.599Z,56.00
2018-04-14T02:02:36.531Z,56.00
2018-04-14T02:03:36.597Z,56.00
2018-04-14T02:04:36.551Z,56.00
2018-04-14T02:05:36.598Z,56.00
2018-04-14T02:06:36.526Z,56.00
2018-04-14T02:07:36.599Z,56.00
2018-04-14T02:08:36.543Z,56.00
2018-04-14T02:09:36.555Z,56.00
2018-04-14T02:10:36.593Z,54.00
2018-04-14T02:11:36.550Z,54.00
2018-04-14T02:12:36.595Z,54.00
2018-04-14T02:13:36.601Z,54.00
2018-04-14T02:14:36.501Z,54.00
2018-04-14T02:15:36.599Z,54.00
2018-04-14T02:16:36.545Z,54.00
2018-04-14T02:17:36.604Z,54.00
2018-04-14T02:18:36.595Z,54.00
2018-04-14T02:19:36.506Z,54.00
2018-04-14T02:20:36.553Z,51.90
2018-04-14T02:21:36.583Z,51.90
2018-04-14T02:22:36.645Z,51.90
2018-04-14T02:23:36.558Z,51.90
2018-04-14T02:24:36.644Z,51.90
2018-04-14T02:25:36.542Z,51.90
2018-04-14T02:26:36.619Z,51.90
2018-04-14T02:27:36.633Z,51.90
2018-04-14T02:28:36.684Z,51.90
2018-04-14T02:29:36.621Z,51.90
2018-04-14T02:30:36.617Z,45.80
2018-04-14T02:31:36.547Z,45.80
2018-04-14T02:32:36.543Z,45.80
2018-04-14T02:33:36.622Z,45.80
2018-04-14T02:34:36.543Z,45.80
2018-04-14T02:35:36.619Z,45.80
2018-04-14T02:36:36.547Z,45.80
2018-04-14T02:37:36.620Z,45.80
2018-04-14T02:38:36.549Z,45.80
2018-04-14T02:39:36.619Z,45.80
2018-04-14T02:40:36.555Z,46.00
2018-04-14T02:41:36.625Z,46.00
2018-04-14T02:42:36.551Z,46.00
2018-04-14T02:43:36.624Z,46.00
2018-04-14T02:44:36.625Z,46.00
2018-04-14T02:45:36.582Z,46.00
2018-04-14T02:46:36.626Z,46.00
2018-04-14T02:47:36.557Z,46.00
2018-04-14T02:48:36.626Z,46.00
2018-04-14T02:49:36.555Z,46.00
2018-04-14T02:50:36.630Z,43.30
2018-04-14T02:51:36.562Z,43.30
2018-04-14T02:52:36.626Z,43.30
2018-04-14T02:53:36.561Z,43.30
2018-04-14T02:54:36.635Z,43.30
2018-04-14T02:55:36.564Z,43.30
2018-04-14T02:56:36.633Z,43.30
2018-04-14T02:57:36.562Z,43.30
2018-04-14T02:58:36.519Z,43.30
2018-04-14T02:59:36.569Z,43.30
2018-04-14T03:00:36.544Z,42.50
2018-04-14T03:01:36.639Z,42.50
2018-04-14T03:02:36.665Z,42.50
2018-04-14T03:03:36.640Z,42.50
2018-04-14T03:04:36.706Z,42.50
2018-04-14T03:05:36.607Z,42.50
2018-04-14T03:06:36.641Z,42.50
2018-04-14T03:07:36.719Z,42.50
2018-04-14T03:08:36.562Z,42.50
2018-04-14T03:09:36.674Z,42.50
2018-04-14T03:10:36.590Z,43.50
2018-04-14T03:11:36.577Z,43.50
2018-04-14T03:12:36.651Z,43.50
2018-04-14T03:13:36.651Z,43.50
2018-04-14T03:14:36.582Z,43.50
2018-04-14T03:15:36.653Z,43.50
2018-04-14T03:16:36.583Z,43.50
2018-04-14T03:17:36.583Z,43.50
2018-04-14T03:18:36.682Z,43.50
2018-04-14T03:19:36.653Z,43.50
2018-04-14T03:20:36.657Z,46.20
2018-04-14T03:21:36.661Z,46.20
2018-04-14T03:22:36.559Z,46.20
2018-04-14T03:23:36.619Z,46.20
2018-04-14T03:24:36.756Z,46.20
2018-04-14T03:25:36.663Z,46.20
2018-04-14T03:26:36.590Z,46.20
2018-04-14T03:27:36.603Z,46.20
2018-04-14T03:28:36.589Z,46.20
2018-04-14T03:29:36.593Z,46.20
2018-04-14T03:30:36.531Z,41.20
2018-04-14T03:31:36.653Z,41.20
2018-04-14T03:32:36.706Z,41.20
2018-04-14T03:33:36.680Z,41.20
2018-04-14T03:34:36.603Z,41.20
2018-04-14T03:35:36.656Z,41.20
2018-04-14T03:36:36.534Z,41.20
2018-04-14T03:37:36.647Z,41.20
2018-04-14T03:38:36.560Z,41.20
2018-04-14T03:39:36.648Z,41.20
2018-04-14T03:40:36.617Z,45.99
2018-04-14T03:41:36.598Z,45.99
2018-04-14T03:42:36.698Z,45.99
2018-04-14T03:43:36.631Z,45.99
2018-04-14T03:44:36.569Z,45.99
2018-04-14T03:45:36.723Z,45.99
2018-04-14T03:46:36.602Z,45.99
2018-04-14T03:47:36.624Z,45.99
2018-04-14T03:48:36.689Z,45.99
2018-04-14T03:49:36.704Z,45.99
2018-04-14T03:50:36.586Z,45.99
2018-04-14T03:51:36.677Z,41.70
2018-04-14T03:52:36.592Z,41.70
2018-04-14T03:53:36.642Z,41.70
2018-04-14T03:54:36.678Z,41.70
2018-04-14T03:55:36.645Z,41.70
2018-04-14T03:56:36.671Z,41.70
2018-04-14T03:57:36.610Z,41.70
2018-04-14T03:58:36.648Z,41.70
2018-04-14T03:59:36.645Z,41.70
2018-04-14T04:00:36.711Z,41.70
2018-04-14T04:01:36.700Z,44.60
2018-04-14T04:02:36.657Z,44.60
2018-04-14T04:03:36.659Z,44.60
2018-04-14T04:04:36.718Z,44.60
2018-04-14T04:05:36.717Z,44.60
2018-04-14T04:06:36.686Z,44.60
2018-04-14T04:07:36.679Z,44.60
2018-04-14T04:08:36.691Z,44.60
2018-04-14T04:09:36.651Z,44.60
2018-04-14T04:10:36.678Z,44.60
2018-04-14T04:11:36.603Z,44.60
2018-04-14T04:12:36.818Z,44.60
2018-04-14T04:13:36.716Z,44.60
2018-04-14T04:14:36.749Z,44.60
2018-04-14T04:15:36.740Z,44.60
2018-04-14T04:16:36.712Z,44.60
2018-04-14T04:17:36.651Z,44.60
2018-04-14T04:18:36.614Z,44.60
2018-04-14T04:19:36.653Z,44.60
2018-04-14T04:20:36.715Z,44.60
2018-04-14T04:21:36.709Z,44.10
2018-04-14T04:22:36.718Z,44.10
2018-04-14T04:23:36.697Z,44.10
2018-04-14T04:24:36.748Z,44.10
2018-04-14T04:25:36.612Z,44.10
2018-04-14T04:26:36.615Z,44.10
2018-04-14T04:27:36.616Z,44.10
2018-04-14T04:28:36.758Z,44.10
2018-04-14T04:29:36.672Z,44.10
2018-04-14T04:30:36.616Z,44.10
2018-04-14T04:31:36.610Z,43.30
2018-04-14T04:32:36.732Z,43.30
2018-04-14T04:33:36.720Z,43.30
2018-04-14T04:34:36.708Z,43.30
2018-04-14T04:35:36.620Z,43.30
2018-04-14T04:36:36.666Z,43.30
2018-04-14T04:37:36.676Z,43.30
2018-04-14T04:38:36.710Z,43.30
2018-04-14T04:39:36.703Z,43.30
2018-04-14T04:40:36.735Z,43.30
2018-04-14T04:41:36.549Z,42.00
2018-04-14T04:42:36.609Z,42.00
2018-04-14T04:43:36.551Z,42.00
2018-04-14T04:44:36.575Z,42.00
2018-04-14T04:45:36.639Z,42.00
2018-04-14T04:46:36.556Z,42.00
2018-04-14T04:47:36.529Z,42.00
2018-04-14T04:48:36.531Z,42.00
2018-04-14T04:49:36.572Z,42.00
2018-04-14T04:50:36.529Z,42.00
2018-04-14T04:51:36.624Z,38.20
2018-04-14T04:52:36.689Z,38.20
2018-04-14T04:53:36.740Z,38.20
2018-04-14T04:55:36.732Z,38.20
2018-04-14T04:56:36.743Z,38.20
2018-04-14T04:57:36.768Z,38.20
2018-04-14T04:58:36.823Z,38.20
2018-04-14T04:59:36.746Z,38.20
2018-04-14T05:00:36.686Z,38.20
2018-04-14T05:01:36.691Z,32.90
2018-04-14T05:02:36.745Z,32.90
2018-04-14T05:03:36.735Z,32.90
2018-04-14T05:04:36.688Z,32.90
2018-04-14T05:05:36.638Z,32.90
2018-04-14T05:06:36.779Z,32.90
2018-04-14T05:07:36.692Z,32.90
2018-04-14T05:08:36.758Z,32.90
2018-04-14T05:09:36.699Z,32.90
2018-04-14T05:10:36.619Z,32.90
2018-04-14T05:11:36.663Z,32.70
2018-04-14T05:12:36.776Z,32.70
2018-04-14T05:13:36.723Z,32.70
2018-04-14T05:14:36.747Z,32.70
2018-04-14T05:15:36.752Z,32.70
2018-04-14T05:16:36.782Z,32.70
2018-04-14T05:17:36.690Z,32.70
2018-04-14T05:18:36.660Z,32.70
2018-04-14T05:19:36.632Z,32.70
2018-04-14T05:20:36.668Z,32.70
2018-04-14T05:21:36.643Z,27.50
2018-04-14T05:23:36.633Z,27.50
2018-04-14T05:24:36.715Z,27.50
2018-04-14T05:25:36.719Z,27.50
2018-04-14T05:26:36.708Z,27.50
2018-04-14T05:27:36.625Z,27.50
2018-04-14T05:28:36.605Z,27.50
2018-04-14T05:29:36.647Z,27.50
2018-04-14T05:30:36.713Z,27.50
2018-04-14T05:31:36.609Z,27.00
2018-04-14T05:32:36.611Z,27.00
2018-04-14T05:33:36.639Z,27.00
2018-04-14T05:34:36.692Z,27.00
2018-04-14T05:35:36.677Z,27.00
2018-04-14T05:36:36.715Z,27.00
2018-04-14T05:37:36.697Z,27.00
2018-04-14T05:38:36.714Z,27.00
2018-04-14T05:39:36.730Z,27.00
2018-04-14T05:40:36.731Z,27.00
2018-04-14T05:41:36.733Z,25.00
2018-04-14T05:42:36.701Z,25.00
2018-04-14T05:43:36.645Z,25.00
2018-04-14T05:44:36.734Z,25.00
2018-04-14T05:45:36.736Z,25.00
2018-04-14T05:46:36.733Z,25.00
2018-04-14T05:47:36.736Z,25.00
2018-04-14T05:48:36.738Z,25.00
2018-04-14T05:49:36.617Z,25.00
2018-04-14T05:50:36.738Z,25.00
2018-04-14T05:51:36.647Z,22.80
2018-04-14T05:52:36.710Z,22.80
2018-04-14T05:53:36.714Z,22.80
2018-04-14T05:54:36.707Z,22.80
2018-04-14T05:55:36.746Z,22.80
2018-04-14T05:56:36.704Z,22.80
2018-04-14T05:57:36.789Z,22.80
2018-04-14T05:58:36.771Z,22.80
2018-04-14T05:59:36.785Z,22.80
2018-04-14T06:00:36.752Z,22.80
2018-04-14T06:01:36.675Z,23.00
2018-04-14T06:02:36.668Z,23.00
2018-04-14T06:03:36.742Z,23.00
2018-04-14T06:04:36.627Z,23.00
2018-04-14T06:05:36.679Z,23.00
2018-04-14T06:06:36.674Z,23.00
2018-04-14T06:07:36.744Z,23.00
2018-04-14T06:08:36.718Z,23.00
2018-04-14T06:09:36.717Z,23.00
2018-04-14T06:10:36.645Z,23.00
2018-04-14T06:11:36.728Z,20.20
2018-04-14T06:12:36.765Z,20.20
2018-04-14T06:13:36.783Z,20.20
2018-04-14T06:14:36.761Z,20.20
2018-04-14T06:15:36.763Z,20.20
2018-04-14T06:16:36.783Z,20.20
2018-04-14T06:17:36.768Z,20.20
2018-04-14T06:18:36.726Z,20.20
2018-04-14T06:19:36.719Z,20.20
2018-04-14T06:20:36.684Z,20.20
2018-04-14T06:21:36.768Z,18.70
2018-04-14T06:22:36.694Z,18.70
2018-04-14T06:23:36.693Z,18.70
2018-04-14T06:24:36.775Z,18.70
2018-04-14T06:25:36.703Z,18.70
2018-04-14T06:26:36.766Z,18.70
2018-04-14T06:27:36.701Z,18.70
2018-04-14T06:28:36.700Z,18.70
2018-04-14T06:29:36.698Z,18.70
2018-04-14T06:30:36.827Z,18.70
2018-04-14T06:31:36.740Z,23.99
2018-04-14T06:32:36.839Z,23.99
2018-04-14T06:33:36.696Z,23.99
2018-04-14T06:34:36.827Z,23.99
2018-04-14T06:35:36.745Z,23.99
2018-04-14T06:36:36.771Z,23.99
2018-04-14T06:37:36.677Z,23.99
2018-04-14T06:38:36.805Z,23.99
2018-04-14T06:39:36.752Z,23.99
2018-04-14T06:40:36.787Z,23.99
2018-04-14T06:41:36.706Z,25.20
2018-04-14T06:42:36.710Z,25.20
2018-04-14T06:43:36.782Z,25.20
2018-04-14T06:44:36.708Z,25.20
2018-04-14T06:45:36.784Z,25.20
2018-04-14T06:46:36.737Z,25.20
2018-04-14T06:47:36.780Z,25.20
2018-04-14T06:48:36.719Z,25.20
2018-04-14T06:49:36.785Z,25.20
2018-04-14T06:50:36.783Z,25.20
2018-04-14T06:51:36.712Z,23.99
2018-04-14T06:52:36.783Z,23.99
2018-04-14T06:53:36.791Z,23.99
2018-04-14T06:54:36.713Z,23.99
2018-04-14T06:55:36.798Z,23.99
2018-04-14T06:56:36.719Z,23.99
2018-04-14T06:57:36.787Z,23.99
2018-04-14T06:58:36.725Z,23.99
2018-04-14T06:59:36.720Z,23.99
2018-04-14T07:00:36.718Z,23.99
2018-04-14T07:01:36.720Z,29.10
2018-04-14T07:02:36.829Z,29.10
2018-04-14T07:03:36.796Z,29.10
2018-04-14T07:04:36.810Z,29.10
2018-04-14T07:05:36.793Z,29.10
2018-04-14T07:06:36.721Z,29.10
2018-04-14T07:07:36.810Z,29.10
2018-04-14T07:08:36.725Z,29.10
2018-04-14T07:09:36.795Z,29.10
2018-04-14T07:10:36.726Z,29.10
2018-04-14T07:11:36.820Z,24.80
2018-04-14T07:12:36.825Z,24.80
2018-04-14T07:13:36.714Z,24.80
2018-04-14T07:14:36.817Z,24.80
2018-04-14T07:15:36.824Z,24.80
2018-04-14T07:16:36.823Z,24.80
2018-04-14T07:17:36.804Z,24.80
2018-04-14T07:18:36.794Z,24.80
2018-04-14T07:19:36.797Z,24.80
2018-04-14T07:20:36.858Z,24.80
2018-04-14T07:21:36.795Z,21.90
2018-04-14T07:22:36.753Z,21.90
2018-04-14T07:23:36.709Z,21.90
2018-04-14T07:24:36.692Z,21.90
2018-04-14T07:25:36.723Z,21.90
2018-04-14T07:26:36.799Z,21.90
2018-04-14T07:27:36.734Z,21.90
2018-04-14T07:28:36.712Z,21.90
2018-04-14T07:29:36.803Z,21.90
2018-04-14T07:30:36.799Z,21.90
2018-04-14T07:31:36.726Z,18.70
2018-04-14T07:32:36.796Z,18.70
2018-04-14T07:33:36.723Z,18.70
2018-04-14T07:34:36.725Z,18.70
2018-04-14T07:35:36.803Z,18.70
2018-04-14T07:36:36.754Z,18.70
2018-04-14T07:37:36.810Z,18.70
2018-04-14T07:38:36.803Z,18.70
2018-04-14T07:39:36.703Z,18.70
2018-04-14T07:40:36.807Z,18.70
2018-04-14T07:41:36.804Z,19.90
2018-04-14T07:42:36.802Z,19.90
2018-04-14T07:43:36.811Z,19.90
2018-04-14T07:44:36.731Z,19.90
2018-04-14T07:45:36.808Z,19.90
2018-04-14T07:46:36.723Z,19.90
2018-04-14T07:47:36.739Z,19.90
2018-04-14T07:48:36.692Z,19.90
2018-04-14T07:49:36.811Z,19.90
2018-04-14T07:50:36.809Z,19.90
2018-04-14T07:51:36.839Z,19.10
2018-04-14T07:52:36.816Z,19.10
2018-04-14T07:53:36.815Z,19.10
2018-04-14T07:54:36.817Z,19.10
2018-04-14T07:55:36.708Z,19.10
2018-04-14T07:56:36.814Z,19.10
2018-04-14T07:57:36.769Z,19.10
2018-04-14T07:58:36.735Z,19.10
2018-04-14T07:59:36.817Z,19.10
2018-04-14T08:00:36.750Z,19.10
2018-04-14T08:01:36.821Z,38.40
2018-04-14T08:02:36.798Z,38.40
2018-04-14T08:03:36.748Z,38.40
2018-04-14T08:04:36.851Z,38.40
2018-04-14T08:05:36.863Z,38.40
2018-04-14T08:06:36.859Z,38.40
2018-04-14T08:07:36.870Z,38.40
2018-04-14T08:08:36.787Z,38.40
2018-04-14T08:09:36.800Z,38.40
2018-04-14T08:10:36.860Z,38.40
2018-04-14T08:11:36.972Z,36.20
2018-04-14T08:12:36.730Z,36.20
2018-04-14T08:13:36.842Z,36.20
2018-04-14T08:14:36.764Z,36.20
2018-04-14T08:15:36.768Z,36.20
2018-04-14T08:16:36.766Z,36.20
2018-04-14T08:17:36.767Z,36.20
2018-04-14T08:18:36.854Z,36.20
2018-04-14T08:19:36.723Z,36.20
2018-04-14T08:20:36.840Z,36.20
2018-04-14T08:21:36.761Z,27.60
2018-04-14T08:22:36.751Z,27.60
2018-04-14T08:23:36.836Z,27.60
2018-04-14T08:24:36.862Z,27.60
2018-04-14T08:25:36.781Z,27.60
2018-04-14T08:26:36.841Z,27.60
2018-04-14T08:27:36.863Z,27.60
2018-04-14T08:28:36.809Z,27.60
2018-04-14T08:29:36.871Z,27.60
2018-04-14T08:30:36.863Z,27.60
2018-04-14T08:31:36.714Z,21.00
2018-04-14T08:32:36.834Z,21.00
2018-04-14T08:33:36.792Z,21.00
2018-04-14T08:34:36.800Z,21.00
2018-04-14T08:35:36.781Z,21.00
2018-04-14T08:36:36.868Z,21.00
2018-04-14T08:37:36.829Z,21.00
2018-04-14T08:38:36.782Z,21.00
2018-04-14T08:39:36.740Z,21.00
2018-04-14T08:40:36.712Z,21.00
2018-04-14T08:41:36.857Z,28.30
2018-04-14T08:42:36.786Z,28.30
2018-04-14T08:43:36.783Z,28.30
2018-04-14T08:44:36.783Z,28.30
2018-04-14T08:45:36.860Z,28.30
2018-04-14T08:46:36.783Z,28.30
2018-04-14T08:47:36.813Z,28.30
2018-04-14T08:48:36.860Z,28.30
2018-04-14T08:49:36.786Z,28.30
2018-04-14T08:50:36.786Z,28.30
2018-04-14T08:51:36.875Z,36.00
2018-04-14T08:52:36.857Z,36.00
2018-04-14T08:53:36.861Z,36.00
2018-04-14T08:54:36.793Z,36.00
2018-04-14T08:55:36.789Z,36.00
2018-04-14T08:56:36.804Z,36.00
2018-04-14T08:57:36.858Z,36.00
2018-04-14T08:58:36.854Z,36.00
2018-04-14T08:59:36.791Z,36.00
2018-04-14T09:00:36.865Z,36.00
2018-04-14T09:01:36.792Z,28.70
2018-04-14T09:02:36.792Z,28.70
2018-04-14T09:03:36.795Z,28.70
2018-04-14T09:04:36.869Z,28.70
2018-04-14T09:05:36.799Z,28.70
2018-04-14T09:06:36.823Z,28.70
2018-04-14T09:07:36.795Z,28.70
2018-04-14T09:08:36.796Z,28.70
2018-04-14T09:09:36.795Z,28.70
2018-04-14T09:10:36.800Z,28.70
2018-04-14T09:11:36.871Z,33.99
2018-04-14T09:12:36.904Z,33.99
2018-04-14T09:13:36.903Z,33.99
2018-04-14T09:14:36.870Z,33.99
2018-04-14T09:15:36.838Z,33.99
2018-04-14T09:16:36.891Z,33.99
2018-04-14T09:17:36.795Z,33.99
2018-04-14T09:18:36.904Z,33.99
2018-04-14T09:19:36.845Z,33.99
2018-04-14T09:20:36.809Z,33.99
2018-04-14T09:21:36.881Z,23.70
2018-04-14T09:22:36.876Z,23.70
2018-04-14T09:23:36.878Z,23.70
2018-04-14T09:24:36.784Z,23.70
2018-04-14T09:25:36.815Z,23.70
2018-04-14T09:26:36.793Z,23.70
2018-04-14T09:27:36.816Z,23.70
2018-04-14T09:28:36.887Z,23.70
2018-04-14T09:29:36.778Z,23.70
2018-04-14T09:30:36.880Z,23.70
2018-04-14T09:31:36.882Z,26.20
2018-04-14T09:32:36.810Z,26.20
2018-04-14T09:33:36.886Z,26.20
2018-04-14T09:34:36.815Z,26.20
2018-04-14T09:35:36.882Z,26.20
2018-04-14T09:36:36.816Z,26.20
2018-04-14T09:37:36.817Z,26.20
2018-04-14T09:38:36.847Z,26.20
2018-04-14T09:39:36.816Z,26.20
2018-04-14T09:40:36.889Z,26.20
2018-04-14T09:41:36.778Z,42.00
2018-04-14T09:42:36.815Z,42.00
2018-04-14T09:43:36.777Z,42.00
2018-04-14T09:44:36.849Z,42.00
2018-04-14T09:45:36.884Z,42.00
2018-04-14T09:46:36.779Z,42.00
2018-04-14T09:47:36.823Z,42.00
2018-04-14T09:48:36.768Z,42.00
2018-04-14T09:49:36.886Z,42.00
2018-04-14T09:50:36.767Z,42.00
2018-04-14T09:51:36.866Z,44.30
2018-04-14T09:52:36.901Z,44.30
2018-04-14T09:53:36.821Z,44.30
2018-04-14T09:54:36.821Z,44.30
2018-04-14T09:55:36.833Z,44.30
2018-04-14T09:56:36.810Z,44.30
2018-04-14T09:57:36.897Z,44.30
2018-04-14T09:58:36.926Z,44.30
2018-04-14T09:59:36.874Z,44.30
2018-04-14T10:00:36.857Z,44.30
2018-04-14T10:01:36.811Z,44.60
2018-04-14T10:02:36.904Z,44.60
2018-04-14T10:03:36.929Z,44.60
2018-04-14T10:04:36.934Z,44.60
2018-04-14T10:05:36.900Z,44.60
2018-04-14T10:06:36.926Z,44.60
2018-04-14T10:07:36.928Z,44.60
2018-04-14T10:08:36.811Z,44.60
2018-04-14T10:09:36.928Z,44.60
2018-04-14T10:10:36.957Z,44.60
2018-04-14T10:11:36.938Z,44.60
2018-04-14T10:12:36.928Z,42.40
2018-04-14T10:13:36.847Z,42.40
2018-04-14T10:14:36.909Z,42.40
2018-04-14T10:15:36.909Z,42.40
2018-04-14T10:16:36.879Z,42.40
2018-04-14T10:17:36.848Z,42.40
2018-04-14T10:18:36.914Z,42.40
2018-04-14T10:19:36.849Z,42.40
2018-04-14T10:20:36.879Z,42.40
2018-04-14T10:21:36.816Z,42.40
2018-04-14T10:22:36.887Z,45.99
2018-04-14T10:23:36.912Z,45.99
2018-04-14T10:24:36.939Z,45.99
2018-04-14T10:25:36.946Z,45.99
2018-04-14T10:26:36.834Z,45.99
2018-04-14T10:27:36.918Z,45.99
2018-04-14T10:28:36.920Z,45.99
2018-04-14T10:29:37.003Z,45.99
2018-04-14T10:30:36.952Z,45.99
2018-04-14T10:31:36.875Z,45.99
2018-04-14T10:32:36.953Z,43.70
2018-04-14T10:33:36.885Z,43.70
2018-04-14T10:34:36.847Z,43.70
2018-04-14T10:35:36.843Z,43.70
2018-04-14T10:36:36.885Z,43.70
2018-04-14T10:37:36.958Z,43.70
2018-04-14T10:38:36.830Z,43.70
2018-04-14T10:39:36.930Z,43.70
2018-04-14T10:40:36.950Z,43.70
2018-04-14T10:41:36.844Z,43.70
2018-04-14T10:42:36.967Z,38.80
2018-04-14T10:43:36.903Z,38.80
2018-04-14T10:44:36.969Z,38.80
2018-04-14T10:45:36.926Z,38.80
2018-04-14T10:46:36.942Z,38.80
2018-04-14T10:47:36.889Z,38.80
2018-04-14T10:48:36.870Z,38.80
2018-04-14T10:49:36.961Z,38.80
2018-04-14T10:50:36.840Z,38.80
2018-04-14T10:51:36.898Z,38.80
2018-04-14T10:52:36.926Z,38.00
2018-04-14T10:53:36.852Z,38.00
2018-04-14T10:54:36.937Z,38.00
2018-04-14T10:55:36.930Z,38.00
2018-04-14T10:56:36.895Z,38.00
2018-04-14T10:57:36.931Z,38.00
2018-04-14T10:58:36.907Z,38.00
2018-04-14T10:59:36.925Z,38.00
2018-04-14T11:00:36.895Z,38.00
2018-04-14T11:01:36.858Z,38.00
2018-04-14T11:02:36.931Z,34.20
2018-04-14T11:03:36.935Z,34.20
2018-04-14T11:04:36.901Z,34.20
2018-04-14T11:05:36.937Z,34.20
2018-04-14T11:06:36.936Z,34.20
2018-04-14T11:07:36.937Z,34.20
2018-04-14T11:08:36.944Z,34.20
2018-04-14T11:09:36.945Z,34.20
2018-04-14T11:10:36.936Z,34.20
2018-04-14T11:11:36.938Z,34.20
2018-04-14T11:12:37.005Z,34.20
2018-04-14T11:13:36.914Z,34.20
2018-04-14T11:14:36.911Z,34.20
2018-04-14T11:15:36.871Z,34.20
2018-04-14T11:16:36.979Z,34.20
2018-04-14T11:18:36.918Z,34.20
2018-04-14T11:19:36.992Z,34.20
2018-04-14T11:20:36.983Z,34.20
2018-04-14T11:21:36.950Z,34.20
2018-04-14T11:22:36.856Z,31.10
2018-04-14T11:23:36.983Z,31.10
2018-04-14T11:24:36.891Z,31.10
2018-04-14T11:25:36.984Z,31.10
2018-04-14T11:26:36.877Z,31.10
2018-04-14T11:27:36.934Z,31.10
2018-04-14T11:28:36.924Z,31.10
2018-04-14T11:29:36.978Z,31.10
2018-04-14T11:30:36.976Z,31.10
2018-04-14T11:31:36.997Z,31.10
2018-04-14T11:32:36.894Z,36.80
2018-04-14T11:33:36.957Z,36.80
2018-04-14T11:34:36.897Z,36.80
2018-04-14T11:35:36.962Z,36.80
2018-04-14T11:36:36.917Z,36.80
2018-04-14T11:37:36.893Z,36.80
2018-04-14T11:38:36.891Z,36.80
2018-04-14T11:39:36.967Z,36.80
2018-04-14T11:40:36.961Z,36.80
2018-04-14T11:41:36.977Z,36.80
2018-04-14T11:42:36.921Z,33.90
2018-04-14T11:43:36.938Z,33.90
2018-04-14T11:44:36.890Z,33.90
2018-04-14T11:45:36.953Z,33.90
2018-04-14T11:46:36.955Z,33.90
2018-04-14T11:47:36.959Z,33.90
2018-04-14T11:48:36.903Z,33.90
2018-04-14T11:49:36.947Z,33.90
2018-04-14T11:50:36.946Z,33.90
2018-04-14T11:51:36.902Z,33.90
2018-04-14T11:52:36.873Z,28.90
2018-04-14T11:53:36.975Z,28.90
2018-04-14T11:54:36.971Z,28.90
2018-04-14T11:55:36.998Z,28.90
2018-04-14T11:56:36.900Z,28.90
2018-04-14T11:57:36.978Z,28.90
2018-04-14T11:58:36.943Z,28.90
2018-04-14T11:59:37.008Z,28.90
2018-04-14T12:00:36.883Z,28.90
2018-04-14T12:01:36.896Z,28.90
2018-04-14T12:02:36.911Z,36.00
2018-04-14T12:03:36.925Z,36.00
2018-04-14T12:04:36.960Z,36.00
2018-04-14T12:05:36.922Z,36.00
2018-04-14T12:06:36.868Z,36.00
2018-04-14T12:07:36.966Z,36.00
2018-04-14T12:08:36.977Z,36.00
2018-04-14T12:09:36.943Z,36.00
2018-04-14T12:10:36.848Z,36.00
2018-04-14T12:11:36.924Z,36.00
2018-04-14T12:12:37.027Z,30.30
2018-04-14T12:13:37.003Z,30.30
2018-04-14T12:14:37.025Z,30.30
2018-04-14T12:15:36.986Z,30.30
2018-04-14T12:16:37.029Z,30.30
2018-04-14T12:17:36.987Z,30.30
2018-04-14T12:18:36.963Z,30.30
2018-04-14T12:19:36.955Z,30.30
2018-04-14T12:20:36.949Z,30.30
2018-04-14T12:21:36.954Z,30.30
2018-04-14T12:22:37.089Z,30.90
2018-04-14T12:23:37.032Z,30.90
2018-04-14T12:24:36.992Z,30.90
2018-04-14T12:25:36.989Z,30.90
2018-04-14T12:26:36.899Z,30.90
2018-04-14T12:27:37.021Z,30.90
2018-04-14T12:28:37.011Z,30.90
2018-04-14T12:29:37.016Z,30.90
2018-04-14T12:30:36.994Z,30.90
2018-04-14T12:31:36.990Z,30.90
2018-04-14T12:32:36.901Z,33.80
2018-04-14T12:33:37.069Z,33.80
2018-04-14T12:34:36.974Z,33.80
2018-04-14T12:35:36.995Z,33.80
2018-04-14T12:36:36.961Z,33.80
2018-04-14T12:37:37.023Z,33.80
2018-04-14T12:38:36.906Z,33.80
2018-04-14T12:39:37.002Z,33.80
2018-04-14T12:40:36.942Z,33.80
2018-04-14T12:41:37.031Z,33.80
2018-04-14T12:42:36.934Z,33.90
2018-04-14T12:43:36.932Z,33.90
2018-04-14T12:44:37.013Z,33.90
2018-04-14T12:45:37.000Z,33.90
2018-04-14T12:46:36.934Z,33.90
2018-04-14T12:47:37.013Z,33.90
2018-04-14T12:48:36.934Z,33.90
2018-04-14T12:49:36.935Z,33.90
2018-04-14T12:50:37.013Z,33.90
2018-04-14T12:51:36.954Z,33.90
2018-04-14T12:52:37.014Z,36.80
2018-04-14T12:53:36.939Z,36.80
2018-04-14T12:54:36.939Z,36.80
2018-04-14T12:55:37.014Z,36.80
2018-04-14T12:56:36.942Z,36.80